createdAt,value
2018-04-27T00:00:53.584Z,12.80
2018-04-27T00:03:22.147Z,12.33
2018-04-27T00:05:50.564Z,13.27
2018-04-27T00:08:19.706Z,12.60
2018-04-27T00:10:48.265Z,12.70
2018-04-27T00:13:17.388Z,13.57
2018-04-27T00:15:45.769Z,13.47
2018-04-27T00:18:14.221Z,13.60
2018-04-27T00:20:42.922Z,14.17
2018-04-27T00:23:11.318Z,13.07
2018-04-27T00:25:39.695Z,13.60
2018-04-27T00:28:08.232Z,13.43
2018-04-27T00:30:36.657Z,12.80
2018-04-27T00:33:05.062Z,14.60
2018-04-27T00:35:33.441Z,13.93
2018-04-27T00:38:01.771Z,13.77
2018-04-27T00:40:30.119Z,12.77
2018-04-27T00:42:58.490Z,12.90
2018-04-27T00:45:26.848Z,13.20
2018-04-27T00:47:55.212Z,13.67
2018-04-27T00:50:23.708Z,13.83
2018-04-27T00:53:03.843Z,13.50
2018-04-27T00:55:32.228Z,14.57
2018-04-27T00:58:00.595Z,13.17
2018-04-27T01:00:29.003Z,13.93
2018-04-27T01:02:57.325Z,14.03
2018-04-27T01:05:26.605Z,14.43
2018-04-27T01:07:55.727Z,14.53
2018-04-27T01:10:24.922Z,14.83
2018-04-27T01:12:54.090Z,13.90
2018-04-27T01:15:22.498Z,14.30
2018-04-27T01:17:51.036Z,15.07
2018-04-27T01:20:19.393Z,13.90
2018-04-27T01:22:47.748Z,14.60
2018-04-27T01:25:16.871Z,14.90
2018-04-27T01:27:45.255Z,14.90
2018-04-27T01:30:13.612Z,15.30
2018-04-27T01:32:42.004Z,14.67
2018-04-27T01:35:10.386Z,14.67
2018-04-27T01:37:38.733Z,15.43
2018-04-27T01:40:07.867Z,14.63
2018-04-27T01:42:36.230Z,14.50
2018-04-27T01:45:04.571Z,15.10
2018-04-27T01:47:32.999Z,15.67
2018-04-27T01:50:01.385Z,15.03
2018-04-27T01:52:29.734Z,15.97
2018-04-27T01:54:58.103Z,15.83
2018-04-27T01:57:27.232Z,16.37
2018-04-27T01:59:55.614Z,15.30
2018-04-27T02:02:24.079Z,15.70
2018-04-27T02:04:52.424Z,16.27
2018-04-27T02:07:20.795Z,16.40
2018-04-27T02:09:49.151Z,17.03
2018-04-27T02:12:17.583Z,17.73
2018-04-27T02:14:46.706Z,17.70
2018-04-27T02:17:15.073Z,17.93
2018-04-27T02:19:43.446Z,17.53
2018-04-27T02:22:11.909Z,18.67
2018-04-27T02:24:41.028Z,18.90
2018-04-27T02:27:09.449Z,18.27
2018-04-27T02:29:37.837Z,17.20
2018-04-27T02:32:06.188Z,17.30
2018-04-27T02:34:34.542Z,17.87
2018-04-27T02:37:02.899Z,16.27
2018-04-27T02:39:32.079Z,17.77
2018-04-27T02:42:00.453Z,16.73
2018-04-27T02:44:28.837Z,18.10
2018-04-27T02:46:57.180Z,16.73
2018-04-27T02:49:26.040Z,17.17
2018-04-27T02:51:54.513Z,16.03
2018-04-27T02:54:23.649Z,16.13
2018-04-27T02:56:52.080Z,16.87
2018-04-27T02:59:20.405Z,16.87
2018-04-27T03:01:48.881Z,16.13
2018-04-27T03:04:17.235Z,16.97
2018-04-27T03:06:45.639Z,16.50
2018-04-27T03:09:14.044Z,15.83
2018-04-27T03:11:42.519Z,15.53
2018-04-27T03:14:10.933Z,15.37
2018-04-27T03:16:39.328Z,17.10
2018-04-27T03:19:07.721Z,16.87
2018-04-27T03:21:36.827Z,16.10
2018-04-27T03:24:05.215Z,16.77
2018-04-27T03:26:33.583Z,17.10
2018-04-27T03:29:01.987Z,15.83
2018-04-27T03:31:30.369Z,16.47
2018-04-27T03:33:58.928Z,16.53
2018-04-27T03:36:27.292Z,15.43
2018-04-27T03:38:56.422Z,15.60
2018-04-27T03:41:24.921Z,15.97
2018-04-27T03:43:53.281Z,15.17
2018-04-27T03:46:21.644Z,15.23
2018-04-27T03:48:50.106Z,14.80
2018-04-27T03:51:18.462Z,14.63
2018-04-27T03:53:46.814Z,14.33
2018-04-27T03:56:15.191Z,15.40
2018-04-27T03:58:43.711Z,14.43
2018-04-27T04:01:24.030Z,16.07
2018-04-27T04:04:04.275Z,14.80
2018-04-27T04:06:32.637Z,14.43
2018-04-27T04:09:00.980Z,13.80
2018-04-27T04:11:29.368Z,13.90
2018-04-27T04:13:58.532Z,13.93
2018-04-27T04:16:26.952Z,13.10
2018-04-27T04:18:55.594Z,13.67
2018-04-27T04:21:23.965Z,13.27
2018-04-27T04:23:52.301Z,13.80
2018-04-27T04:26:21.436Z,13.17
2018-04-27T04:28:49.825Z,14.40
2018-04-27T04:31:18.189Z,14.00
2018-04-27T04:33:46.533Z,12.73
2018-04-27T04:36:15.681Z,14.17
2018-04-27T04:38:44.044Z,13.40
2018-04-27T04:41:12.435Z,12.70
2018-04-27T04:43:40.804Z,12.83
2018-04-27T04:46:09.156Z,11.83
2018-04-27T04:48:37.560Z,11.10
2018-04-27T04:51:05.984Z,11.00
2018-04-27T04:53:34.440Z,10.77
2018-04-27T04:56:02.868Z,11.13
2018-04-27T04:58:31.226Z,10.50
2018-04-27T05:00:59.578Z,10.83
2018-04-27T05:03:27.973Z,10.87
2018-04-27T05:05:56.314Z,10.83
2018-04-27T05:08:26.324Z,10.47
2018-04-27T05:10:56.396Z,10.60
2018-04-27T05:13:24.721Z,9.70
2018-04-27T05:15:53.066Z,9.90
2018-04-27T05:18:46.075Z,10.80
2018-04-27T05:21:14.507Z,9.77
2018-04-27T05:23:43.105Z,11.20
2018-04-27T05:26:13.411Z,10.40
2018-04-27T05:28:42.945Z,10.50
2018-04-27T05:31:23.104Z,11.07
2018-04-27T05:33:52.069Z,9.67
2018-04-27T05:36:21.556Z,9.77
2018-04-27T05:38:49.895Z,9.87
2018-04-27T05:41:18.277Z,9.90
2018-04-27T05:43:46.767Z,10.13
2018-04-27T05:46:15.111Z,10.57
2018-04-27T05:48:44.219Z,10.00
2018-04-27T05:51:12.560Z,9.97
2018-04-27T05:53:40.929Z,9.20
2018-04-27T05:56:09.278Z,10.50
2018-04-27T05:58:37.637Z,9.97
2018-04-27T06:01:05.979Z,9.30
2018-04-27T06:03:46.205Z,9.87
2018-04-27T06:06:15.285Z,10.03
2018-04-27T06:08:43.639Z,9.10
2018-04-27T06:11:12.123Z,9.97
2018-04-27T06:13:40.461Z,9.17
2018-04-27T06:16:08.832Z,9.00
2018-04-27T06:18:37.159Z,9.60
2018-04-27T06:21:05.536Z,9.37
2018-04-27T06:23:34.630Z,8.80
2018-04-27T06:26:03.792Z,9.00
2018-04-27T06:28:33.798Z,7.90
2018-04-27T06:31:02.217Z,7.93
2018-04-27T06:33:30.538Z,7.97
2018-04-27T06:35:58.885Z,8.23
2018-04-27T06:38:27.978Z,7.53
2018-04-27T06:40:56.377Z,7.27
2018-04-27T06:43:24.720Z,8.33
2018-04-27T06:45:53.835Z,8.30
2018-04-27T06:48:22.776Z,8.27
2018-04-27T06:50:51.122Z,7.80
2018-04-27T06:53:19.479Z,7.87
2018-04-27T06:55:48.081Z,7.40
2018-04-27T06:58:16.459Z,8.27
2018-04-27T07:00:44.818Z,8.23
2018-04-27T07:03:13.162Z,7.37
2018-04-27T07:05:41.524Z,7.23
2018-04-27T07:08:09.854Z,7.47
2018-04-27T07:10:38.367Z,7.50
2018-04-27T07:13:06.711Z,6.97
2018-04-27T07:15:35.981Z,7.00
2018-04-27T07:18:04.429Z,7.20
2018-04-27T07:20:33.354Z,7.37
2018-04-27T07:23:01.694Z,6.40
2018-04-27T07:25:30.156Z,6.50
2018-04-27T07:27:59.303Z,6.97
2018-04-27T07:30:27.661Z,6.30
2018-04-27T07:32:56.047Z,6.70
2018-04-27T07:35:24.393Z,6.63
2018-04-27T07:37:54.291Z,7.30
2018-04-27T07:40:22.711Z,7.07
2018-04-27T07:42:51.466Z,6.80
2018-04-27T07:45:20.612Z,6.90
2018-04-27T07:47:48.923Z,6.80
2018-04-27T07:50:18.099Z,6.53
2018-04-27T07:52:46.437Z,7.57
2018-04-27T07:55:15.141Z,7.17
2018-04-27T07:57:43.456Z,6.33
2018-04-27T08:00:11.809Z,6.87
2018-04-27T08:02:40.228Z,6.83
2018-04-27T08:05:09.379Z,7.00
2018-04-27T08:07:38.285Z,11.23
2018-04-27T08:10:06.905Z,9.57
2018-04-27T08:12:36.161Z,13.87
2018-04-27T08:15:04.541Z,8.63
2018-04-27T08:17:33.266Z,6.33
2018-04-27T08:20:01.647Z,6.67
2018-04-27T08:22:30.025Z,6.53
2018-04-27T08:24:58.379Z,7.40
2018-04-27T08:27:26.829Z,5.97
2018-04-27T08:29:55.889Z,6.07
2018-04-27T08:32:24.246Z,5.77
2018-04-27T08:34:52.684Z,6.40
2018-04-27T08:37:22.096Z,6.30
2018-04-27T08:39:50.526Z,6.93
2018-04-27T08:42:19.696Z,5.97
2018-04-27T08:44:48.235Z,6.10
2018-04-27T08:47:16.768Z,5.60
2018-04-27T08:49:45.105Z,5.97
2018-04-27T08:52:13.446Z,6.87
2018-04-27T08:54:41.851Z,6.47
2018-04-27T08:57:10.224Z,6.90
2018-04-27T08:59:39.396Z,6.20
2018-04-27T09:02:07.833Z,5.67
2018-04-27T09:04:36.689Z,6.07
2018-04-27T09:07:05.106Z,5.77
2018-04-27T09:09:33.503Z,6.13
2018-04-27T09:12:01.937Z,6.03
2018-04-27T09:14:30.480Z,6.27
2018-04-27T09:16:59.036Z,5.80
2018-04-27T09:19:27.574Z,6.73
2018-04-27T09:21:56.692Z,6.33
2018-04-27T09:24:25.091Z,5.73
2018-04-27T09:26:53.603Z,6.33
2018-04-27T09:29:22.058Z,6.07
2018-04-27T09:31:50.387Z,6.17
2018-04-27T09:34:19.519Z,6.37
2018-04-27T09:36:47.858Z,6.40
2018-04-27T09:39:16.320Z,6.90
2018-04-27T09:41:44.684Z,6.90
2018-04-27T09:44:13.045Z,4.77
2018-04-27T09:46:41.518Z,4.67
2018-04-27T09:49:10.031Z,4.23
2018-04-27T09:51:38.400Z,4.57
2018-04-27T09:54:06.729Z,4.80
2018-04-27T09:56:36.891Z,4.30
2018-04-27T09:59:06.073Z,3.73
2018-04-27T10:01:34.428Z,4.27
2018-04-27T10:04:02.958Z,3.90
2018-04-27T10:06:31.325Z,3.40
2018-04-27T10:08:59.686Z,2.33
2018-04-27T10:11:32.663Z,2.30
2018-04-27T10:14:01.384Z,2.33
2018-04-27T10:16:29.760Z,2.60
2018-04-27T10:18:58.119Z,2.50
2018-04-27T10:21:26.475Z,3.53
2018-04-27T10:23:55.593Z,3.03
2018-04-27T10:26:23.973Z,3.20
2018-04-27T10:28:53.118Z,3.23
2018-04-27T10:31:21.461Z,3.60
2018-04-27T10:33:49.799Z,3.70
2018-04-27T10:36:19.069Z,4.07
2018-04-27T10:38:47.587Z,3.73
2018-04-27T10:41:16.010Z,3.50
2018-04-27T10:43:44.400Z,3.37
2018-04-27T10:46:12.768Z,3.37
2018-04-27T10:48:41.124Z,3.63
2018-04-27T10:51:16.492Z,3.37
2018-04-27T10:53:44.871Z,2.90
2018-04-27T10:56:13.436Z,3.00
2018-04-27T10:58:41.869Z,2.60
2018-04-27T11:01:10.218Z,2.83
2018-04-27T11:03:38.785Z,3.70
2018-04-27T11:06:07.253Z,3.47
2018-04-27T11:08:36.379Z,3.20
2018-04-27T11:11:04.778Z,2.30
2018-04-27T11:13:33.780Z,2.30
2018-04-27T11:16:02.247Z,2.45
2018-04-27T11:18:30.719Z,2.50
2018-04-27T11:20:59.141Z,2.62
2018-04-27T11:23:27.506Z,1.50
2018-04-27T11:25:55.936Z,1.73
2018-04-27T11:28:24.647Z,1.80
2018-04-27T11:30:53.024Z,1.60
2018-04-27T11:33:21.370Z,1.70
2018-04-27T11:35:49.817Z,1.77
2018-04-27T11:38:18.955Z,1.70
2018-04-27T11:40:47.561Z,2.95
2018-04-27T11:43:15.911Z,1.60
2018-04-27T11:45:45.163Z,1.77
2018-04-27T11:48:13.547Z,2.20
2018-04-27T11:50:41.971Z,1.55
2018-04-27T11:53:11.086Z,1.40
2018-04-27T11:55:40.054Z,1.50
2018-04-27T11:58:08.841Z,1.40
2018-04-27T12:00:37.959Z,1.50
2018-04-27T12:03:06.483Z,1.10
2018-04-27T12:05:34.824Z,1.60
2018-04-27T12:08:03.182Z,2.00
2018-04-27T12:10:32.300Z,1.83
2018-04-27T12:13:00.775Z,2.08
2018-04-27T12:15:29.484Z,1.60
2018-04-27T12:17:57.821Z,1.55
2018-04-27T12:20:27.115Z,6.20
2018-04-27T12:22:56.194Z,6.57
2018-04-27T12:25:24.629Z,1.98
2018-04-27T12:27:52.981Z,2.00
2018-04-27T12:30:22.114Z,1.83
2018-04-27T12:32:50.438Z,1.87
2018-04-27T12:35:18.861Z,1.70
2018-04-27T12:37:47.198Z,1.80
2018-04-27T12:40:15.559Z,1.73
2018-04-27T12:42:44.072Z,1.70
2018-04-27T12:45:13.183Z,1.90
2018-04-27T12:47:41.742Z,1.87
2018-04-27T12:50:10.103Z,1.60
2018-04-27T12:52:38.450Z,1.40
2018-04-27T12:55:06.791Z,1.77
2018-04-27T12:57:35.921Z,1.65
2018-04-27T13:00:04.284Z,1.30
2018-04-27T13:02:32.719Z,3.95
2018-04-27T13:05:01.302Z,2.05
2018-04-27T13:07:29.677Z,1.35
2018-04-27T13:09:58.034Z,1.70
2018-04-27T13:12:26.385Z,1.40
2018-04-27T13:14:56.467Z,1.40
2018-04-27T13:17:25.307Z,1.37
2018-04-27T13:19:53.940Z,1.45
2018-04-27T13:22:23.072Z,1.37
2018-04-27T13:24:51.517Z,1.70
2018-04-27T13:27:19.964Z,1.65
2018-04-27T13:29:48.988Z,2.00
2018-04-27T13:32:17.349Z,1.70
2018-04-27T13:34:45.691Z,1.58
2018-04-27T13:37:14.083Z,1.55
2018-04-27T13:39:42.450Z,1.23
2018-04-27T13:42:11.084Z,1.25
2018-04-27T13:44:39.558Z,1.42
2018-04-27T13:47:07.963Z,1.58
2018-04-27T13:49:36.304Z,1.23
2018-04-27T13:52:04.649Z,1.50
2018-04-27T13:54:33.243Z,1.27
2018-04-27T13:57:01.588Z,1.40
2018-04-27T13:59:30.071Z,1.55
2018-04-27T14:01:58.410Z,1.40
2018-04-27T14:04:26.891Z,1.40
2018-04-27T14:06:55.286Z,1.30
2018-04-27T14:09:23.634Z,1.20
2018-04-27T14:11:52.014Z,1.27
2018-04-27T14:14:20.345Z,1.33
2018-04-27T14:16:49.516Z,1.45
2018-04-27T14:19:17.871Z,1.40
2018-04-27T14:21:46.244Z,6.72
2018-04-27T14:24:14.596Z,1.80
2018-04-27T14:26:43.725Z,1.30
2018-04-27T14:29:12.089Z,4.20
2018-04-27T14:31:40.446Z,3.08
2018-04-27T14:34:09.644Z,1.60
2018-04-27T14:36:38.848Z,1.50
2018-04-27T14:39:07.956Z,1.58
2018-04-27T14:41:36.358Z,1.42
2018-04-27T14:44:04.738Z,1.40
2018-04-27T14:46:33.163Z,1.40
2018-04-27T14:49:01.537Z,1.30
2018-04-27T14:51:29.824Z,1.70
2018-04-27T14:53:58.949Z,1.75
2018-04-27T14:56:27.290Z,3.12
2018-04-27T14:58:55.646Z,3.80
2018-04-27T15:01:24.004Z,1.58
2018-04-27T15:03:52.359Z,1.50
2018-04-27T15:06:20.736Z,1.30
2018-04-27T15:08:49.845Z,1.80
2018-04-27T15:11:18.213Z,1.60
2018-04-27T15:13:46.744Z,2.28
2018-04-27T15:16:16.032Z,1.62
2018-04-27T15:18:44.375Z,1.92
2018-04-27T15:21:12.759Z,1.35
2018-04-27T15:23:41.166Z,1.83
2018-04-27T15:26:09.520Z,4.45
2018-04-27T15:28:38.045Z,2.53
2018-04-27T15:31:06.413Z,1.70
2018-04-27T15:33:34.775Z,1.50
2018-04-27T15:36:03.386Z,3.10
2018-04-27T15:38:32.463Z,2.87
2018-04-27T15:41:00.815Z,1.50
2018-04-27T15:43:29.187Z,1.90
2018-04-27T15:45:57.561Z,1.40
2018-04-27T15:48:25.977Z,2.08
2018-04-27T15:50:54.462Z,1.42
2018-04-27T15:53:22.845Z,1.17
2018-04-27T15:55:51.227Z,1.58
2018-04-27T15:58:19.689Z,1.70
2018-04-27T16:00:48.215Z,1.27
2018-04-27T16:03:16.541Z,1.50
2018-04-27T16:05:44.974Z,1.43
2018-04-27T16:08:13.440Z,1.80
2018-04-27T16:10:41.801Z,1.60
2018-04-27T16:13:21.040Z,1.73
2018-04-27T16:15:49.604Z,1.98
2018-04-27T16:18:17.951Z,1.67
2018-04-27T16:20:47.101Z,1.70
2018-04-27T16:23:15.458Z,1.50
2018-04-27T16:25:44.026Z,1.55
2018-04-27T16:28:12.389Z,1.83
2018-04-27T16:30:41.508Z,1.52
2018-04-27T16:33:09.912Z,1.40
2018-04-27T16:35:38.308Z,1.75
2018-04-27T16:38:06.779Z,1.60
2018-04-27T16:40:35.212Z,1.50
2018-04-27T16:43:05.168Z,1.55
2018-04-27T16:45:33.531Z,7.15
2018-04-27T16:48:01.879Z,2.70
2018-04-27T16:50:30.266Z,1.80
2018-04-27T16:52:59.383Z,1.80
2018-04-27T16:55:27.778Z,1.58
2018-04-27T16:57:56.124Z,6.37
2018-04-27T17:00:25.350Z,2.30
2018-04-27T17:02:54.564Z,1.80
2018-04-27T17:05:22.917Z,1.52
2018-04-27T17:07:51.275Z,1.65
2018-04-27T17:10:20.867Z,1.27
2018-04-27T17:12:49.312Z,1.45
2018-04-27T17:15:17.763Z,1.60
2018-04-27T17:17:46.839Z,1.77
2018-04-27T17:20:16.021Z,1.42
2018-04-27T17:22:44.558Z,1.50
2018-04-27T17:25:12.951Z,1.67
2018-04-27T17:27:41.340Z,1.42
2018-04-27T17:30:09.755Z,1.50
2018-04-27T17:32:38.101Z,2.13
2018-04-27T17:35:06.574Z,21.47
2018-04-27T17:37:34.854Z,12.73
2018-04-27T17:40:03.299Z,2.87
2018-04-27T17:42:32.394Z,1.90
2018-04-27T17:45:01.510Z,1.40
2018-04-27T17:47:29.875Z,1.57
2018-04-27T17:49:58.296Z,2.07
2018-04-27T17:52:26.835Z,1.80
2018-04-27T17:54:55.927Z,1.50
2018-04-27T17:57:24.278Z,1.80
2018-04-27T17:59:52.623Z,1.50
2018-04-27T18:02:20.996Z,1.90
2018-04-27T18:04:49.361Z,1.80
2018-04-27T18:07:17.844Z,2.23
2018-04-27T18:09:46.186Z,2.00
2018-04-27T18:12:15.418Z,2.20
2018-04-27T18:14:43.677Z,1.90
2018-04-27T18:17:12.810Z,1.83
2018-04-27T18:19:41.172Z,2.30
2018-04-27T18:22:09.687Z,2.20
2018-04-27T18:24:38.028Z,2.10
2018-04-27T18:27:06.411Z,2.43
2018-04-27T18:29:34.761Z,2.87
2018-04-27T18:32:03.911Z,2.73
2018-04-27T18:34:32.535Z,2.10
2018-04-27T18:37:00.971Z,2.10
2018-04-27T18:39:29.453Z,1.90
2018-04-27T18:41:57.804Z,1.97
2018-04-27T18:44:26.203Z,2.40
2018-04-27T18:46:54.623Z,1.80
2018-04-27T18:49:23.057Z,2.07
2018-04-27T18:51:51.435Z,2.23
2018-04-27T18:54:19.773Z,2.10
2018-04-27T18:56:49.043Z,18.07
2018-04-27T18:59:17.415Z,32.57
2018-04-27T19:01:45.783Z,10.63
2018-04-27T19:04:17.037Z,3.50
2018-04-27T19:06:46.210Z,2.33
2018-04-27T19:09:14.574Z,2.20
2018-04-27T19:11:43.709Z,2.37
2018-04-27T19:14:12.064Z,2.37
2018-04-27T19:16:40.460Z,1.90
2018-04-27T19:19:09.763Z,1.83
2018-04-27T19:21:38.311Z,2.73
2018-04-27T19:24:07.505Z,2.40
2018-04-27T19:26:36.726Z,2.60
2018-04-27T19:29:05.191Z,2.57
2018-04-27T19:31:34.332Z,29.50
2018-04-27T19:34:03.480Z,50.20
2018-04-27T19:36:33.130Z,14.10
2018-04-27T19:39:01.501Z,5.83
2018-04-27T19:41:29.859Z,4.60
2018-04-27T19:43:59.069Z,3.73
2018-04-27T19:46:27.535Z,3.90
2018-04-27T19:48:55.896Z,3.47
2018-04-27T19:51:24.223Z,2.70
2018-04-27T19:53:53.183Z,2.60
2018-04-27T19:56:22.656Z,2.23
2018-04-27T19:58:51.076Z,2.20
2018-04-27T20:01:19.445Z,2.23
2018-04-27T20:03:48.406Z,2.27
2018-04-27T20:06:17.050Z,2.90
2018-04-27T20:08:45.931Z,2.80
2018-04-27T20:11:14.669Z,2.30
2018-04-27T20:13:43.578Z,2.40
2018-04-27T20:16:12.039Z,2.50
2018-04-27T20:18:40.628Z,2.40
2018-04-27T20:21:08.977Z,2.10
2018-04-27T20:23:37.342Z,2.60
2018-04-27T20:26:05.756Z,2.30
2018-04-27T20:28:34.846Z,2.47
2018-04-27T20:31:03.179Z,2.47
2018-04-27T20:33:32.447Z,15.57
2018-04-27T20:36:01.614Z,14.17
2018-04-27T20:38:31.621Z,6.80
2018-04-27T20:41:10.041Z,4.80
2018-04-27T20:43:38.613Z,3.47
2018-04-27T20:46:08.254Z,2.87
2018-04-27T20:48:36.624Z,3.37
2018-04-27T20:51:09.029Z,3.90
2018-04-27T20:56:47.708Z,3.37
2018-04-27T20:59:16.070Z,3.23
2018-04-27T21:01:45.256Z,3.07
2018-04-27T21:04:13.718Z,3.00
2018-04-27T21:06:42.120Z,3.50
2018-04-27T21:09:12.165Z,3.20
2018-04-27T21:11:40.528Z,3.73
2018-04-27T21:14:09.675Z,3.07
2018-04-27T21:16:38.027Z,3.10
2018-04-27T21:19:06.914Z,18.57
2018-04-27T21:21:35.415Z,9.07
2018-04-27T21:24:04.101Z,3.53
2018-04-27T21:26:47.551Z,3.63
2018-04-27T21:29:18.691Z,3.40
2018-04-27T21:31:47.041Z,3.03
2018-04-27T21:34:15.579Z,2.87
2018-04-27T21:36:46.525Z,3.80
2018-04-27T21:39:17.453Z,17.77
2018-04-27T21:42:00.693Z,11.13
2018-04-27T21:44:48.199Z,4.30
2018-04-27T21:47:19.395Z,3.80
2018-04-27T21:49:50.483Z,3.93
2018-04-27T21:52:25.598Z,3.30
2018-04-27T21:54:53.934Z,3.77
2018-04-27T21:57:37.632Z,3.57
2018-04-27T22:00:11.887Z,4.10
2018-04-27T22:02:48.713Z,4.20
2018-04-27T22:05:31.553Z,3.87
2018-04-27T22:07:59.917Z,3.83
2018-04-27T22:10:30.204Z,4.30
2018-04-27T22:12:58.613Z,4.30
2018-04-27T22:15:27.706Z,3.90
2018-04-27T22:17:56.100Z,4.53
2018-04-27T22:20:28.841Z,16.07
2018-04-27T22:22:57.261Z,5.87
2018-04-27T22:25:29.323Z,4.90
2018-04-27T22:28:07.594Z,4.17
2018-04-27T22:30:37.547Z,4.50
2018-04-27T22:42:10.282Z,4.63
2018-04-27T22:44:38.659Z,4.43
2018-04-27T22:47:07.670Z,4.17
2018-04-27T22:49:36.143Z,4.53
2018-04-27T22:52:04.503Z,4.70
2018-04-27T23:00:38.321Z,5.90
2018-04-27T23:03:11.940Z,5.10
2018-04-27T23:05:42.866Z,5.20
2018-04-27T23:08:11.304Z,5.10
2018-04-27T23:10:45.457Z,4.80
2018-04-27T23:13:24.214Z,5.17
2018-04-27T23:15:55.313Z,5.10
2018-04-27T23:18:25.571Z,4.90
2018-04-27T23:20:55.118Z,10.60
2018-04-27T23:23:23.487Z,8.70
2018-04-27T23:25:51.818Z,6.10
2018-04-27T23:28:20.547Z,5.97
2018-04-27T23:30:49.126Z,5.53
2018-04-27T23:33:17.506Z,4.93
2018-04-27T23:35:50.789Z,5.20
2018-04-27T23:38:19.240Z,5.33
2018-04-27T23:40:52.218Z,4.80
2018-04-27T23:43:22.246Z,5.40
2018-04-27T23:45:51.359Z,5.27
2018-04-27T23:48:19.794Z,5.13
2018-04-27T23:50:50.059Z,5.90
2018-04-27T23:53:20.127Z,4.97
2018-04-27T23:55:48.675Z,5.50
2018-04-27T23:58:18.022Z,5.73
